Norwich, CT

3:16 PM EST on March 03, 2015 (GMT -0500)
Center of Town | Change Station
CLOSE
Current Station
Personal Weather Station
Location: Canterbury, CT
Elevation: 272 ft
Nearby Weather Stations

Elev 272 ft 41.69 °N, 71.99 °W | Updated 19 seconds ago

Partly Cloudy
Partly Cloudy
31.1 °F
Feels Like 31 °F
N
2.2
Wind Variable Wind from WSW
Gusts 6.8 mph

Today
High -- | Low -- °F
--% Chance of Precip.
Yesterday
High -- | Low -- °F
Precip. -- in
6:19 AM 5:40 PM
Waxing Gibbous, 97% visible
Pressure 30.28 in
Visibility 10.0 miles
Clouds Overcast 9500 ft
Windchill 31 °F
Dew Point 8 °F
Humidity 37%
Rainfall 0.00 in
Snow Depth Not available.
UV 1 out of 12
Pollen .50 out of 12
Air Quality Not available.
Flu Activity Not available.
METAR KIJD 031952Z AUTO 17006KT 10SM OVC095 M01/M14 A3027 RMK AO2 SLP253 T10061144

More Conditions Fewer Conditions

Pressure 30.28 in
Visibility 10.0 miles
Clouds Overcast 9500 ft
Windchill 31 °F
Dew Point 8 °F
Humidity 37%
Rainfall 0.00 in
Snow Depth Not available.
UV 1 out of 12
Pollen .50 out of 12
Air Quality Not available.
Flu Activity Not available.
METAR KIJD 031952Z AUTO 17006KT 10SM OVC095 M01/M14 A3027 RMK AO2 SLP253 T10061144

More Conditions Fewer Conditions

10-Day Weather Forecast

Almanac

Astronomy

Mar. 03, 2015 Rise Set
Actual Time
Civil Twilight
Nautical Twilight
Astronomical Twilight
Moon
Length of Visible Light
Length of Day
Tomorrow will be .
, % of the Moon is Illuminated

Today's Extremes

State Highs State Lows

Community

WunderPhotos

Upload Photos

1,802,225 photos uploaded!

WunderBlogs® & News

Nearby

Air Quality

  Air Quality AQ Index Pollutant
Not available.

Snow Depth

Station Depth Elevation

Earthquake Activity

City Distance Mag. Time & Date
Minimum magnitude displayed is 2.5.

Coastal Water Temperatures

Place Temperature

Nearby Weather Stations

Winter Weather Advisory
Statement as of 4:01 AM EST on March 03, 2015

... Winter Weather Advisory remains in effect from 3 PM this
afternoon to 10 am EST Wednesday...

* locations... the lower Hudson Valley... most of southern
Connecticut... and parts of northeast New Jersey.

* Hazard types... snow... sleet and freezing rain.

* Accumulations... snow accumulation of 2 to 4 inches... along with
around a tenth of inch of ice or less.

* Temperatures... in the lower 30s.

* Timing... snow develops late this afternoon... then mixes with
sleet and freezing rain tonight before a changeover to freezing
rain late at night.

* Impacts... snow covered surfaces... coated with ice... will make
traveling difficult at times.

Precautionary/preparedness actions...

A Winter Weather Advisory means that periods of snow... sleet... or
freezing rain will cause travel difficulties. Be prepared for
slippery roads and limited visibilities... and use caution while
driving.